sensor_id;sensor_type;location;lat;lon;timestamp;temperature;humidity
9399;DHT22;4739;49.334;8.792;2022-11-23T00:01:21;5.40;99.90
9399;DHT22;4739;49.334;8.792;2022-11-23T00:03:50;5.40;99.90
9399;DHT22;4739;49.334;8.792;2022-11-23T00:06:16;5.40;99.90
9399;DHT22;4739;49.334;8.792;2022-11-23T00:08:43;5.40;99.90
9399;DHT22;4739;49.334;8.792;2022-11-23T00:11:09;5.50;99.90
9399;DHT22;4739;49.334;8.792;2022-11-23T00:13:35;5.50;99.90
9399;DHT22;4739;49.334;8.792;2022-11-23T00:16:07;5.60;99.90
9399;DHT22;4739;49.334;8.792;2022-11-23T00:18:33;5.50;99.90
9399;DHT22;4739;49.334;8.792;2022-11-23T00:20:59;5.50;99.90
9399;DHT22;4739;49.334;8.792;2022-11-23T00:23:25;5.50;99.90
9399;DHT22;4739;49.334;8.792;2022-11-23T00:25:50;5.60;99.90
9399;DHT22;4739;49.334;8.792;2022-11-23T00:28:16;5.60;99.90
9399;DHT22;4739;49.334;8.792;2022-11-23T00:30:47;5.60;99.90
9399;DHT22;4739;49.334;8.792;2022-11-23T00:33:13;5.60;99.90
9399;DHT22;4739;49.334;8.792;2022-11-23T00:35:38;5.60;99.90
9399;DHT22;4739;49.334;8.792;2022-11-23T00:38:04;5.70;99.90
9399;DHT22;4739;49.334;8.792;2022-11-23T00:40:30;5.70;99.90
9399;DHT22;4739;49.334;8.792;2022-11-23T00:42:55;5.70;99.90
9399;DHT22;4739;49.334;8.792;2022-11-23T00:45:21;5.70;99.90
9399;DHT22;4739;49.334;8.792;2022-11-23T00:47:46;5.70;99.90
9399;DHT22;4739;49.334;8.792;2022-11-23T00:50:12;5.80;99.90
9399;DHT22;4739;49.334;8.792;2022-11-23T00:52:37;5.80;99.90
9399;DHT22;4739;49.334;8.792;2022-11-23T00:55:03;5.80;99.90
9399;DHT22;4739;49.334;8.792;2022-11-23T00:57:29;5.90;99.90
9399;DHT22;4739;49.334;8.792;2022-11-23T00:59:54;5.90;99.90
9399;DHT22;4739;49.334;8.792;2022-11-23T01:02:20;5.90;99.90
9399;DHT22;4739;49.334;8.792;2022-11-23T01:04:45;5.90;99.90
9399;DHT22;4739;49.334;8.792;2022-11-23T01:07:11;5.80;99.90
9399;DHT22;4739;49.334;8.792;2022-11-23T01:09:37;5.80;99.90
9399;DHT22;4739;49.334;8.792;2022-11-23T01:12:02;5.80;99.90
9399;DHT22;4739;49.334;8.792;2022-11-23T01:14:28;5.80;99.90
9399;DHT22;4739;49.334;8.792;2022-11-23T01:16:53;5.80;99.90
9399;DHT22;4739;49.334;8.792;2022-11-23T01:19:19;5.90;99.90
9399;DHT22;4739;49.334;8.792;2022-11-23T01:21:45;5.90;99.90
9399;DHT22;4739;49.334;8.792;2022-11-23T01:24:17;5.70;99.90
9399;DHT22;4739;49.334;8.792;2022-11-23T01:26:42;5.70;99.90
9399;DHT22;4739;49.334;8.792;2022-11-23T01:29:11;5.60;99.90
9399;DHT22;4739;49.334;8.792;2022-11-23T01:31:37;5.60;99.90
9399;DHT22;4739;49.334;8.792;2022-11-23T01:36:34;5.40;99.90
9399;DHT22;4739;49.334;8.792;2022-11-23T01:39:01;5.40;99.90
9399;DHT22;4739;49.334;8.792;2022-11-23T01:41:29;5.30;99.90
9399;DHT22;4739;49.334;8.792;2022-11-23T01:43:55;5.30;99.90
9399;DHT22;4739;49.334;8.792;2022-11-23T01:46:21;5.20;99.90
9399;DHT22;4739;49.334;8.792;2022-11-23T01:48:57;5.20;99.90
9399;DHT22;4739;49.334;8.792;2022-11-23T01:51:36;5.20;99.90
9399;DHT22;4739;49.334;8.792;2022-11-23T01:54:08;5.20;99.90
9399;DHT22;4739;49.334;8.792;2022-11-23T01:56:38;5.20;99.90
9399;DHT22;4739;49.334;8.792;2022-11-23T01:59:10;5.20;99.90
9399;DHT22;4739;49.334;8.792;2022-11-23T02:01:38;5.20;99.90
9399;DHT22;4739;49.334;8.792;2022-11-23T02:04:07;5.30;99.90
9399;DHT22;4739;49.334;8.792;2022-11-23T02:06:36;5.30;99.90
9399;DHT22;4739;49.334;8.792;2022-11-23T02:09:02;5.30;99.90
9399;DHT22;4739;49.334;8.792;2022-11-23T02:11:28;5.30;99.90
9399;DHT22;4739;49.334;8.792;2022-11-23T02:13:53;5.30;99.90
9399;DHT22;4739;49.334;8.792;2022-11-23T02:16:21;5.40;99.90
9399;DHT22;4739;49.334;8.792;2022-11-23T02:18:49;5.40;99.90
9399;DHT22;4739;49.334;8.792;2022-11-23T02:21:15;5.50;99.90
9399;DHT22;4739;49.334;8.792;2022-11-23T02:24:06;5.50;99.90
9399;DHT22;4739;49.334;8.792;2022-11-23T02:26:35;5.50;99.90
9399;DHT22;4739;49.334;8.792;2022-11-23T02:29:22;5.50;99.90
9399;DHT22;4739;49.334;8.792;2022-11-23T02:31:48;5.60;99.90
9399;DHT22;4739;49.334;8.792;2022-11-23T02:34:16;5.60;99.90
9399;DHT22;4739;49.334;8.792;2022-11-23T02:37:02;5.60;99.90
9399;DHT22;4739;49.334;8.792;2022-11-23T02:41:54;5.70;99.90
9399;DHT22;4739;49.334;8.792;2022-11-23T02:47:13;5.80;99.90
9399;DHT22;4739;49.334;8.792;2022-11-23T02:49:44;5.80;99.90
9399;DHT22;4739;49.334;8.792;2022-11-23T02:52:10;5.80;99.90
9399;DHT22;4739;49.334;8.792;2022-11-23T02:54:35;5.80;99.90
9399;DHT22;4739;49.334;8.792;2022-11-23T02:57:01;5.80;99.90
9399;DHT22;4739;49.334;8.792;2022-11-23T02:59:27;5.80;99.90
9399;DHT22;4739;49.334;8.792;2022-11-23T03:01:53;5.80;99.90
9399;DHT22;4739;49.334;8.792;2022-11-23T03:04:18;5.80;99.90
9399;DHT22;4739;49.334;8.792;2022-11-23T03:06:44;5.80;99.90
9399;DHT22;4739;49.334;8.792;2022-11-23T03:09:10;5.80;99.90
9399;DHT22;4739;49.334;8.792;2022-11-23T03:11:35;5.80;99.90
9399;DHT22;4739;49.334;8.792;2022-11-23T03:14:01;5.70;99.90
9399;DHT22;4739;49.334;8.792;2022-11-23T03:16:27;5.80;99.90
9399;DHT22;4739;49.334;8.792;2022-11-23T03:18:53;5.80;99.90
9399;DHT22;4739;49.334;8.792;2022-11-23T03:21:18;5.90;99.90
9399;DHT22;4739;49.334;8.792;2022-11-23T03:23:44;6.00;99.90
9399;DHT22;4739;49.334;8.792;2022-11-23T03:26:10;6.00;99.90
9399;DHT22;4739;49.334;8.792;2022-11-23T03:28:35;6.00;99.90
9399;DHT22;4739;49.334;8.792;2022-11-23T03:31:01;6.00;99.90
9399;DHT22;4739;49.334;8.792;2022-11-23T03:33:27;6.00;99.90
9399;DHT22;4739;49.334;8.792;2022-11-23T03:35:52;6.00;99.90
9399;DHT22;4739;49.334;8.792;2022-11-23T03:38:18;6.10;99.90
9399;DHT22;4739;49.334;8.792;2022-11-23T03:40:44;6.00;99.90
9399;DHT22;4739;49.334;8.792;2022-11-23T03:43:13;6.00;99.90
9399;DHT22;4739;49.334;8.792;2022-11-23T03:45:40;6.00;99.90
9399;DHT22;4739;49.334;8.792;2022-11-23T03:48:05;6.00;99.90
9399;DHT22;4739;49.334;8.792;2022-11-23T03:50:31;5.90;99.90
9399;DHT22;4739;49.334;8.792;2022-11-23T03:52:57;5.90;99.90
9399;DHT22;4739;49.334;8.792;2022-11-23T03:55:24;5.90;99.90
9399;DHT22;4739;49.334;8.792;2022-11-23T03:57:50;5.80;99.90
9399;DHT22;4739;49.334;8.792;2022-11-23T04:00:18;5.80;99.90
9399;DHT22;4739;49.334;8.792;2022-11-23T04:02:44;5.80;99.90
9399;DHT22;4739;49.334;8.792;2022-11-23T04:05:09;5.80;99.90
9399;DHT22;4739;49.334;8.792;2022-11-23T04:07:35;5.80;99.90
9399;DHT22;4739;49.334;8.792;2022-11-23T04:10:01;5.80;99.90
9399;DHT22;4739;49.334;8.792;2022-11-23T04:12:26;5.80;99.90
9399;DHT22;4739;49.334;8.792;2022-11-23T04:14:52;5.70;99.90
9399;DHT22;4739;49.334;8.792;2022-11-23T04:17:18;5.70;99.90
9399;DHT22;4739;49.334;8.792;2022-11-23T04:19:43;5.70;99.90
9399;DHT22;4739;49.334;8.792;2022-11-23T04:22:09;5.70;99.90
9399;DHT22;4739;49.334;8.792;2022-11-23T04:24:35;5.70;99.90
9399;DHT22;4739;49.334;8.792;2022-11-23T04:27:00;5.70;99.90
9399;DHT22;4739;49.334;8.792;2022-11-23T04:29:26;5.70;99.90
9399;DHT22;4739;49.334;8.792;2022-11-23T04:31:52;5.70;99.90
9399;DHT22;4739;49.334;8.792;2022-11-23T04:34:18;5.70;99.90
9399;DHT22;4739;49.334;8.792;2022-11-23T04:36:43;5.70;99.90
9399;DHT22;4739;49.334;8.792;2022-11-23T04:39:10;5.70;99.90
9399;DHT22;4739;49.334;8.792;2022-11-23T04:41:37;5.80;99.90
9399;DHT22;4739;49.334;8.792;2022-11-23T04:44:03;5.80;99.90
9399;DHT22;4739;49.334;8.792;2022-11-23T04:46:29;5.80;99.90
9399;DHT22;4739;49.334;8.792;2022-11-23T04:48:54;5.80;99.90
9399;DHT22;4739;49.334;8.792;2022-11-23T04:51:20;5.80;99.90
9399;DHT22;4739;49.334;8.792;2022-11-23T04:53:46;5.80;99.90
9399;DHT22;4739;49.334;8.792;2022-11-23T04:56:11;5.80;99.90
9399;DHT22;4739;49.334;8.792;2022-11-23T04:58:37;5.80;99.90
9399;DHT22;4739;49.334;8.792;2022-11-23T05:01:03;5.80;99.90
9399;DHT22;4739;49.334;8.792;2022-11-23T05:03:29;5.80;99.90
9399;DHT22;4739;49.334;8.792;2022-11-23T05:05:58;5.80;99.90
9399;DHT22;4739;49.334;8.792;2022-11-23T05:08:24;5.80;99.90
9399;DHT22;4739;49.334;8.792;2022-11-23T05:10:49;5.80;99.90
9399;DHT22;4739;49.334;8.792;2022-11-23T05:13:15;5.70;99.90
9399;DHT22;4739;49.334;8.792;2022-11-23T05:15:40;5.70;99.90
9399;DHT22;4739;49.334;8.792;2022-11-23T05:18:06;5.70;99.90
9399;DHT22;4739;49.334;8.792;2022-11-23T05:20:33;5.70;99.90
9399;DHT22;4739;49.334;8.792;2022-11-23T05:22:58;5.60;99.90
9399;DHT22;4739;49.334;8.792;2022-11-23T05:25:26;5.60;99.90
9399;DHT22;4739;49.334;8.792;2022-11-23T05:27:52;5.60;99.90
9399;DHT22;4739;49.334;8.792;2022-11-23T05:30:18;5.60;99.90
9399;DHT22;4739;49.334;8.792;2022-11-23T05:32:43;5.70;99.90
9399;DHT22;4739;49.334;8.792;2022-11-23T05:35:09;5.70;99.90
9399;DHT22;4739;49.334;8.792;2022-11-23T05:37:35;5.70;99.90
9399;DHT22;4739;49.334;8.792;2022-11-23T05:40:01;5.70;99.90
9399;DHT22;4739;49.334;8.792;2022-11-23T05:42:26;5.70;99.90
9399;DHT22;4739;49.334;8.792;2022-11-23T05:44:52;5.70;99.90
9399;DHT22;4739;49.334;8.792;2022-11-23T05:47:18;5.70;99.90
9399;DHT22;4739;49.334;8.792;2022-11-23T05:49:43;5.70;99.90
9399;DHT22;4739;49.334;8.792;2022-11-23T05:52:09;5.70;99.90
9399;DHT22;4739;49.334;8.792;2022-11-23T05:54:34;5.70;99.90
9399;DHT22;4739;49.334;8.792;2022-11-23T05:57:00;5.70;99.90
9399;DHT22;4739;49.334;8.792;2022-11-23T05:59:26;5.70;99.90
9399;DHT22;4739;49.334;8.792;2022-11-23T06:01:51;5.70;99.90
9399;DHT22;4739;49.334;8.792;2022-11-23T06:04:17;5.70;99.90
9399;DHT22;4739;49.334;8.792;2022-11-23T06:06:43;5.60;99.90
9399;DHT22;4739;49.334;8.792;2022-11-23T06:09:08;5.60;99.90
9399;DHT22;4739;49.334;8.792;2022-11-23T06:11:34;5.60;99.90
9399;DHT22;4739;49.334;8.792;2022-11-23T06:14:00;5.60;99.90
9399;DHT22;4739;49.334;8.792;2022-11-23T06:16:25;5.60;99.90
9399;DHT22;4739;49.334;8.792;2022-11-23T06:18:51;5.60;99.90
9399;DHT22;4739;49.334;8.792;2022-11-23T06:21:17;5.70;99.90
9399;DHT22;4739;49.334;8.792;2022-11-23T06:23:42;5.80;99.90
9399;DHT22;4739;49.334;8.792;2022-11-23T06:26:08;5.70;99.90
9399;DHT22;4739;49.334;8.792;2022-11-23T06:28:33;5.60;99.90
9399;DHT22;4739;49.334;8.792;2022-11-23T06:31:02;5.70;99.90
9399;DHT22;4739;49.334;8.792;2022-11-23T06:33:28;5.80;99.90
9399;DHT22;4739;49.334;8.792;2022-11-23T06:35:55;5.70;99.90
9399;DHT22;4739;49.334;8.792;2022-11-23T06:38:21;5.70;99.90
9399;DHT22;4739;49.334;8.792;2022-11-23T06:40:47;5.60;99.90
9399;DHT22;4739;49.334;8.792;2022-11-23T06:43:12;5.60;99.90
9399;DHT22;4739;49.334;8.792;2022-11-23T06:45:39;5.70;99.90
9399;DHT22;4739;49.334;8.792;2022-11-23T06:48:04;5.70;99.90
9399;DHT22;4739;49.334;8.792;2022-11-23T06:50:30;5.60;99.90
9399;DHT22;4739;49.334;8.792;2022-11-23T06:52:56;5.60;99.90
9399;DHT22;4739;49.334;8.792;2022-11-23T06:55:23;5.50;99.90
9399;DHT22;4739;49.334;8.792;2022-11-23T06:57:49;5.50;99.90
9399;DHT22;4739;49.334;8.792;2022-11-23T07:00:15;5.40;99.90
9399;DHT22;4739;49.334;8.792;2022-11-23T07:02:41;5.50;99.90
9399;DHT22;4739;49.334;8.792;2022-11-23T07:05:07;5.40;99.90
9399;DHT22;4739;49.334;8.792;2022-11-23T07:07:33;5.30;99.90
9399;DHT22;4739;49.334;8.792;2022-11-23T07:09:59;5.40;99.90
9399;DHT22;4739;49.334;8.792;2022-11-23T07:12:24;5.40;99.90
9399;DHT22;4739;49.334;8.792;2022-11-23T07:14:50;5.30;99.90
9399;DHT22;4739;49.334;8.792;2022-11-23T07:17:15;5.20;99.90
9399;DHT22;4739;49.334;8.792;2022-11-23T07:19:41;5.20;99.90
9399;DHT22;4739;49.334;8.792;2022-11-23T07:22:06;5.20;99.90
9399;DHT22;4739;49.334;8.792;2022-11-23T07:24:32;5.10;99.90
9399;DHT22;4739;49.334;8.792;2022-11-23T07:26:57;5.00;99.90
9399;DHT22;4739;49.334;8.792;2022-11-23T07:29:23;4.90;99.90
9399;DHT22;4739;49.334;8.792;2022-11-23T07:31:49;4.90;99.90
9399;DHT22;4739;49.334;8.792;2022-11-23T07:34:14;4.80;99.90
9399;DHT22;4739;49.334;8.792;2022-11-23T07:36:40;4.80;99.90
9399;DHT22;4739;49.334;8.792;2022-11-23T07:39:05;4.70;99.90
9399;DHT22;4739;49.334;8.792;2022-11-23T07:41:31;4.70;99.90
9399;DHT22;4739;49.334;8.792;2022-11-23T07:43:57;4.60;99.90
9399;DHT22;4739;49.334;8.792;2022-11-23T07:46:22;4.60;99.90
9399;DHT22;4739;49.334;8.792;2022-11-23T07:48:48;4.60;99.90
9399;DHT22;4739;49.334;8.792;2022-11-23T07:51:14;4.60;99.90
9399;DHT22;4739;49.334;8.792;2022-11-23T07:53:40;4.60;99.90
9399;DHT22;4739;49.334;8.792;2022-11-23T07:56:06;4.60;99.90
9399;DHT22;4739;49.334;8.792;2022-11-23T07:58:32;4.50;99.90
9399;DHT22;4739;49.334;8.792;2022-11-23T08:00:57;4.50;99.90
9399;DHT22;4739;49.334;8.792;2022-11-23T08:03:23;4.50;99.90
9399;DHT22;4739;49.334;8.792;2022-11-23T08:05:50;4.50;99.90
9399;DHT22;4739;49.334;8.792;2022-11-23T08:08:15;4.50;99.90
9399;DHT22;4739;49.334;8.792;2022-11-23T08:10:41;4.50;99.90
9399;DHT22;4739;49.334;8.792;2022-11-23T08:13:07;4.50;99.90
9399;DHT22;4739;49.334;8.792;2022-11-23T08:15:32;4.40;99.90
9399;DHT22;4739;49.334;8.792;2022-11-23T08:18:00;4.50;99.90
9399;DHT22;4739;49.334;8.792;2022-11-23T08:20:27;4.50;99.90
9399;DHT22;4739;49.334;8.792;2022-11-23T08:22:54;4.50;99.90
9399;DHT22;4739;49.334;8.792;2022-11-23T08:25:26;4.50;99.90
9399;DHT22;4739;49.334;8.792;2022-11-23T08:28:00;4.50;99.90
9399;DHT22;4739;49.334;8.792;2022-11-23T08:30:28;4.50;99.90
9399;DHT22;4739;49.334;8.792;2022-11-23T08:32:53;4.50;99.90
9399;DHT22;4739;49.334;8.792;2022-11-23T08:35:20;4.60;99.90
9399;DHT22;4739;49.334;8.792;2022-11-23T08:37:46;4.60;99.90
9399;DHT22;4739;49.334;8.792;2022-11-23T08:40:12;4.70;99.90
9399;DHT22;4739;49.334;8.792;2022-11-23T08:42:38;4.70;99.90
9399;DHT22;4739;49.334;8.792;2022-11-23T08:45:04;4.60;99.90
9399;DHT22;4739;49.334;8.792;2022-11-23T08:47:33;4.70;99.90
9399;DHT22;4739;49.334;8.792;2022-11-23T08:49:58;4.70;99.90
9399;DHT22;4739;49.334;8.792;2022-11-23T08:52:24;4.80;99.90
9399;DHT22;4739;49.334;8.792;2022-11-23T08:54:50;4.90;99.90
9399;DHT22;4739;49.334;8.792;2022-11-23T08:57:16;4.90;99.90
9399;DHT22;4739;49.334;8.792;2022-11-23T08:59:42;4.90;99.90
9399;DHT22;4739;49.334;8.792;2022-11-23T09:02:11;4.90;99.90
9399;DHT22;4739;49.334;8.792;2022-11-23T09:04:38;5.00;99.90
9399;DHT22;4739;49.334;8.792;2022-11-23T09:07:03;5.00;99.90
9399;DHT22;4739;49.334;8.792;2022-11-23T09:09:29;5.00;99.90
9399;DHT22;4739;49.334;8.792;2022-11-23T09:11:54;5.00;99.90
9399;DHT22;4739;49.334;8.792;2022-11-23T09:14:20;5.00;99.90
9399;DHT22;4739;49.334;8.792;2022-11-23T09:16:46;5.00;99.90
9399;DHT22;4739;49.334;8.792;2022-11-23T09:19:12;5.10;99.90
9399;DHT22;4739;49.334;8.792;2022-11-23T09:21:38;5.10;99.90
9399;DHT22;4739;49.334;8.792;2022-11-23T09:24:04;5.30;99.90
9399;DHT22;4739;49.334;8.792;2022-11-23T09:26:29;5.30;99.90
9399;DHT22;4739;49.334;8.792;2022-11-23T09:28:58;5.30;99.90
9399;DHT22;4739;49.334;8.792;2022-11-23T09:31:23;5.30;99.90
9399;DHT22;4739;49.334;8.792;2022-11-23T09:36:32;5.50;99.90
9399;DHT22;4739;49.334;8.792;2022-11-23T09:38:58;5.50;99.90
9399;DHT22;4739;49.334;8.792;2022-11-23T09:44:13;5.70;99.90
9399;DHT22;4739;49.334;8.792;2022-11-23T09:52:24;6.20;99.90
9399;DHT22;4739;49.334;8.792;2022-11-23T09:54:52;6.30;99.90
9399;DHT22;4739;49.334;8.792;2022-11-23T09:57:23;6.40;99.90
9399;DHT22;4739;49.334;8.792;2022-11-23T09:59:59;6.60;99.90
9399;DHT22;4739;49.334;8.792;2022-11-23T10:02:27;6.70;99.90
9399;DHT22;4739;49.334;8.792;2022-11-23T10:04:54;6.90;99.90
9399;DHT22;4739;49.334;8.792;2022-11-23T10:21:31;7.90;99.90
9399;DHT22;4739;49.334;8.792;2022-11-23T10:26:39;8.20;99.90
9399;DHT22;4739;49.334;8.792;2022-11-23T10:29:16;8.30;99.90
9399;DHT22;4739;49.334;8.792;2022-11-23T10:31:47;8.50;99.90
9399;DHT22;4739;49.334;8.792;2022-11-23T10:34:16;8.70;99.90
9399;DHT22;4739;49.334;8.792;2022-11-23T10:36:43;8.90;99.90
9399;DHT22;4739;49.334;8.792;2022-11-23T10:39:29;9.00;99.90
9399;DHT22;4739;49.334;8.792;2022-11-23T10:42:00;9.20;99.90
9399;DHT22;4739;49.334;8.792;2022-11-23T10:46:53;9.40;99.90
9399;DHT22;4739;49.334;8.792;2022-11-23T10:49:24;9.60;99.90
9399;DHT22;4739;49.334;8.792;2022-11-23T10:51:57;9.70;99.90
9399;DHT22;4739;49.334;8.792;2022-11-23T10:54:36;9.80;99.90
9399;DHT22;4739;49.334;8.792;2022-11-23T11:02:45;10.20;99.90
9399;DHT22;4739;49.334;8.792;2022-11-23T11:05:35;10.30;99.90
9399;DHT22;4739;49.334;8.792;2022-11-23T11:08:12;10.30;99.90
9399;DHT22;4739;49.334;8.792;2022-11-23T11:11:19;10.50;99.90
9399;DHT22;4739;49.334;8.792;2022-11-23T11:13:42;10.60;99.90
9399;DHT22;4739;49.334;8.792;2022-11-23T11:16:31;10.70;99.90
9399;DHT22;4739;49.334;8.792;2022-11-23T11:18:58;10.80;99.90
9399;DHT22;4739;49.334;8.792;2022-11-23T11:21:31;10.80;99.90
9399;DHT22;4739;49.334;8.792;2022-11-23T11:24:03;10.70;99.90
9399;DHT22;4739;49.334;8.792;2022-11-23T11:26:33;10.60;99.90
9399;DHT22;4739;49.334;8.792;2022-11-23T11:29:02;10.70;99.90
9399;DHT22;4739;49.334;8.792;2022-11-23T11:34:26;11.00;99.90
9399;DHT22;4739;49.334;8.792;2022-11-23T11:36:55;11.10;99.90
9399;DHT22;4739;49.334;8.792;2022-11-23T11:39:38;11.20;99.90
9399;DHT22;4739;49.334;8.792;2022-11-23T11:42:13;11.20;99.90
9399;DHT22;4739;49.334;8.792;2022-11-23T11:44:41;11.20;99.90
9399;DHT22;4739;49.334;8.792;2022-11-23T11:47:31;11.30;99.90
9399;DHT22;4739;49.334;8.792;2022-11-23T11:50:00;11.40;99.90
9399;DHT22;4739;49.334;8.792;2022-11-23T11:52:32;11.40;99.90
9399;DHT22;4739;49.334;8.792;2022-11-23T11:55:14;11.40;99.90
9399;DHT22;4739;49.334;8.792;2022-11-23T11:57:57;11.50;99.90
9399;DHT22;4739;49.334;8.792;2022-11-23T12:00:27;11.50;99.90
9399;DHT22;4739;49.334;8.792;2022-11-23T12:06:00;11.60;99.90
9399;DHT22;4739;49.334;8.792;2022-11-23T12:08:49;11.70;99.90
9399;DHT22;4739;49.334;8.792;2022-11-23T12:11:15;11.80;99.90
9399;DHT22;4739;49.334;8.792;2022-11-23T12:13:42;11.90;99.90
9399;DHT22;4739;49.334;8.792;2022-11-23T12:19:08;12.00;99.90
9399;DHT22;4739;49.334;8.792;2022-11-23T12:24:52;11.80;99.90
9399;DHT22;4739;49.334;8.792;2022-11-23T12:38:55;11.40;99.90
9399;DHT22;4739;49.334;8.792;2022-11-23T12:53:53;10.90;99.90
9399;DHT22;4739;49.334;8.792;2022-11-23T12:58:46;10.70;99.90
9399;DHT22;4739;49.334;8.792;2022-11-23T13:01:19;10.70;99.90
9399;DHT22;4739;49.334;8.792;2022-11-23T13:23:44;10.40;99.90
9399;DHT22;4739;49.334;8.792;2022-11-23T13:26:19;10.40;99.90
9399;DHT22;4739;49.334;8.792;2022-11-23T13:28:47;10.40;99.90
9399;DHT22;4739;49.334;8.792;2022-11-23T13:31:20;10.30;99.90
9399;DHT22;4739;49.334;8.792;2022-11-23T13:33:49;10.30;99.90
9399;DHT22;4739;49.334;8.792;2022-11-23T13:38:57;10.30;99.90
9399;DHT22;4739;49.334;8.792;2022-11-23T13:46:36;10.10;99.90
9399;DHT22;4739;49.334;8.792;2022-11-23T13:49:02;10.10;99.90
9399;DHT22;4739;49.334;8.792;2022-11-23T13:51:30;10.00;99.90
9399;DHT22;4739;49.334;8.792;2022-11-23T13:54:14;10.00;99.90
9399;DHT22;4739;49.334;8.792;2022-11-23T13:56:44;10.00;99.90
9399;DHT22;4739;49.334;8.792;2022-11-23T14:04:38;9.90;99.90
9399;DHT22;4739;49.334;8.792;2022-11-23T14:09:47;9.70;99.90
9399;DHT22;4739;49.334;8.792;2022-11-23T14:23:52;9.60;99.90
9399;DHT22;4739;49.334;8.792;2022-11-23T14:35:25;9.50;99.90
9399;DHT22;4739;49.334;8.792;2022-11-23T14:37:52;9.40;99.90
9399;DHT22;4739;49.334;8.792;2022-11-23T14:40:52;9.40;99.90
9399;DHT22;4739;49.334;8.792;2022-11-23T14:43:20;9.30;99.90
9399;DHT22;4739;49.334;8.792;2022-11-23T14:45:46;9.20;99.90
9399;DHT22;4739;49.334;8.792;2022-11-23T14:48:33;9.10;99.90
9399;DHT22;4739;49.334;8.792;2022-11-23T14:51:13;8.90;99.90
9399;DHT22;4739;49.334;8.792;2022-11-23T14:53:42;8.80;99.90
9399;DHT22;4739;49.334;8.792;2022-11-23T14:56:33;8.60;99.90
9399;DHT22;4739;49.334;8.792;2022-11-23T14:59:30;8.50;99.90
9399;DHT22;4739;49.334;8.792;2022-11-23T15:01:59;8.40;99.90
9399;DHT22;4739;49.334;8.792;2022-11-23T15:04:28;8.20;99.90
9399;DHT22;4739;49.334;8.792;2022-11-23T15:07:03;8.20;99.90
9399;DHT22;4739;49.334;8.792;2022-11-23T15:12:23;7.90;99.90
9399;DHT22;4739;49.334;8.792;2022-11-23T15:14:50;7.90;99.90
9399;DHT22;4739;49.334;8.792;2022-11-23T15:17:20;7.80;99.90
9399;DHT22;4739;49.334;8.792;2022-11-23T15:19:56;7.70;99.90
9399;DHT22;4739;49.334;8.792;2022-11-23T15:22:22;7.60;99.90
9399;DHT22;4739;49.334;8.792;2022-11-23T15:24:49;7.50;99.90
9399;DHT22;4739;49.334;8.792;2022-11-23T15:27:20;7.40;99.90
9399;DHT22;4739;49.334;8.792;2022-11-23T15:29:55;7.40;99.90
9399;DHT22;4739;49.334;8.792;2022-11-23T15:34:54;7.40;99.90
9399;DHT22;4739;49.334;8.792;2022-11-23T15:37:21;7.30;99.90
9399;DHT22;4739;49.334;8.792;2022-11-23T15:39:48;7.20;99.90
9399;DHT22;4739;49.334;8.792;2022-11-23T15:42:16;7.10;99.90
9399;DHT22;4739;49.334;8.792;2022-11-23T15:44:42;7.00;99.90
9399;DHT22;4739;49.334;8.792;2022-11-23T15:47:14;7.00;99.90
9399;DHT22;4739;49.334;8.792;2022-11-23T15:49:42;7.00;99.90
9399;DHT22;4739;49.334;8.792;2022-11-23T15:52:13;7.00;99.90
9399;DHT22;4739;49.334;8.792;2022-11-23T15:54:40;7.00;99.90
9399;DHT22;4739;49.334;8.792;2022-11-23T15:57:08;7.00;99.90
9399;DHT22;4739;49.334;8.792;2022-11-23T15:59:49;7.00;99.90
9399;DHT22;4739;49.334;8.792;2022-11-23T16:02:26;7.10;99.90
9399;DHT22;4739;49.334;8.792;2022-11-23T16:05:11;7.20;99.90
9399;DHT22;4739;49.334;8.792;2022-11-23T16:07:52;7.10;99.90
9399;DHT22;4739;49.334;8.792;2022-11-23T16:10:29;7.10;99.90
9399;DHT22;4739;49.334;8.792;2022-11-23T16:12:57;7.10;99.90
9399;DHT22;4739;49.334;8.792;2022-11-23T16:18:00;7.10;99.90
9399;DHT22;4739;49.334;8.792;2022-11-23T16:20:27;7.10;99.90
9399;DHT22;4739;49.334;8.792;2022-11-23T16:22:54;7.10;99.90
9399;DHT22;4739;49.334;8.792;2022-11-23T16:25:29;7.20;99.90
9399;DHT22;4739;49.334;8.792;2022-11-23T16:27:59;7.20;99.90
9399;DHT22;4739;49.334;8.792;2022-11-23T16:30:34;7.20;99.90
9399;DHT22;4739;49.334;8.792;2022-11-23T16:33:00;7.30;99.90
9399;DHT22;4739;49.334;8.792;2022-11-23T16:35:26;7.30;99.90
9399;DHT22;4739;49.334;8.792;2022-11-23T16:37:51;7.40;99.90
9399;DHT22;4739;49.334;8.792;2022-11-23T16:40:17;7.50;99.90
9399;DHT22;4739;49.334;8.792;2022-11-23T16:42:43;7.50;99.90
9399;DHT22;4739;49.334;8.792;2022-11-23T16:45:09;7.60;99.90
9399;DHT22;4739;49.334;8.792;2022-11-23T16:47:53;7.50;99.90
9399;DHT22;4739;49.334;8.792;2022-11-23T16:50:19;7.50;99.90
9399;DHT22;4739;49.334;8.792;2022-11-23T16:52:45;7.50;99.90
9399;DHT22;4739;49.334;8.792;2022-11-23T16:55:10;7.60;99.90
9399;DHT22;4739;49.334;8.792;2022-11-23T16:57:37;7.60;99.90
9399;DHT22;4739;49.334;8.792;2022-11-23T17:00:06;7.60;99.90
9399;DHT22;4739;49.334;8.792;2022-11-23T17:02:32;7.50;99.90
9399;DHT22;4739;49.334;8.792;2022-11-23T17:04:58;7.50;99.90
9399;DHT22;4739;49.334;8.792;2022-11-23T17:07:24;7.60;99.90
9399;DHT22;4739;49.334;8.792;2022-11-23T17:09:49;7.50;99.90
9399;DHT22;4739;49.334;8.792;2022-11-23T17:12:17;7.60;99.90
9399;DHT22;4739;49.334;8.792;2022-11-23T17:14:46;7.60;99.90
9399;DHT22;4739;49.334;8.792;2022-11-23T17:17:18;7.60;99.90
9399;DHT22;4739;49.334;8.792;2022-11-23T17:19:45;7.60;99.90
9399;DHT22;4739;49.334;8.792;2022-11-23T17:22:13;7.60;99.90
9399;DHT22;4739;49.334;8.792;2022-11-23T17:24:39;7.70;99.90
9399;DHT22;4739;49.334;8.792;2022-11-23T17:27:05;7.60;99.90
9399;DHT22;4739;49.334;8.792;2022-11-23T17:29:31;7.70;99.90
9399;DHT22;4739;49.334;8.792;2022-11-23T17:31:56;7.60;99.90
9399;DHT22;4739;49.334;8.792;2022-11-23T17:34:22;7.60;99.90
9399;DHT22;4739;49.334;8.792;2022-11-23T17:36:49;7.60;99.90
9399;DHT22;4739;49.334;8.792;2022-11-23T17:39:25;7.60;99.90
9399;DHT22;4739;49.334;8.792;2022-11-23T17:41:52;7.60;99.90
9399;DHT22;4739;49.334;8.792;2022-11-23T17:44:18;7.60;99.90
9399;DHT22;4739;49.334;8.792;2022-11-23T17:46:44;7.50;99.90
9399;DHT22;4739;49.334;8.792;2022-11-23T17:49:13;7.50;99.90
9399;DHT22;4739;49.334;8.792;2022-11-23T17:51:39;7.50;99.90
9399;DHT22;4739;49.334;8.792;2022-11-23T17:54:05;7.50;99.90
9399;DHT22;4739;49.334;8.792;2022-11-23T17:56:30;7.50;99.90
9399;DHT22;4739;49.334;8.792;2022-11-23T17:58:56;7.50;99.90
9399;DHT22;4739;49.334;8.792;2022-11-23T18:01:22;7.40;99.90
9399;DHT22;4739;49.334;8.792;2022-11-23T18:03:48;7.40;99.90
9399;DHT22;4739;49.334;8.792;2022-11-23T18:06:17;7.50;99.90
9399;DHT22;4739;49.334;8.792;2022-11-23T18:08:44;7.50;99.90
9399;DHT22;4739;49.334;8.792;2022-11-23T18:11:10;7.60;99.90
9399;DHT22;4739;49.334;8.792;2022-11-23T18:13:37;7.70;99.90
9399;DHT22;4739;49.334;8.792;2022-11-23T18:16:03;7.70;99.90
9399;DHT22;4739;49.334;8.792;2022-11-23T18:18:29;7.70;99.90
9399;DHT22;4739;49.334;8.792;2022-11-23T18:20:55;7.70;99.90
9399;DHT22;4739;49.334;8.792;2022-11-23T18:23:20;7.70;99.90
9399;DHT22;4739;49.334;8.792;2022-11-23T18:25:53;7.60;99.90
9399;DHT22;4739;49.334;8.792;2022-11-23T18:28:21;7.60;99.90
9399;DHT22;4739;49.334;8.792;2022-11-23T18:30:47;7.60;99.90
9399;DHT22;4739;49.334;8.792;2022-11-23T18:33:12;7.70;99.90
9399;DHT22;4739;49.334;8.792;2022-11-23T18:35:39;7.70;99.90
9399;DHT22;4739;49.334;8.792;2022-11-23T18:38:05;7.80;99.90
9399;DHT22;4739;49.334;8.792;2022-11-23T18:40:30;7.60;99.90
9399;DHT22;4739;49.334;8.792;2022-11-23T18:42:56;7.80;99.90
9399;DHT22;4739;49.334;8.792;2022-11-23T18:45:23;7.60;99.90
9399;DHT22;4739;49.334;8.792;2022-11-23T18:47:49;7.90;99.90
9399;DHT22;4739;49.334;8.792;2022-11-23T18:50:15;9.80;99.90